createdAt,value
2022-11-29T00:05:47.589Z,71
2022-11-29T00:19:48.692Z,72.1
2022-11-29T00:33:51.330Z,70.7
2022-11-29T00:47:51.271Z,70.5
2022-11-29T01:01:53.541Z,70.3
2022-11-29T01:15:56.241Z,70.3
2022-11-29T01:29:58.456Z,69.5
2022-11-29T01:43:59.158Z,68.2
2022-11-29T01:58:00.887Z,66.5
2022-11-29T02:12:02.523Z,66.3
2022-11-29T02:26:05.845Z,65.8
2022-11-29T02:40:04.902Z,64.6
2022-11-29T02:54:06.028Z,65
2022-11-29T03:08:08.068Z,62.6
2022-11-29T03:22:09.483Z,61.3
2022-11-29T03:36:12.667Z,61.2
2022-11-29T03:50:14.305Z,60.8
2022-11-29T04:04:14.969Z,59.9
2022-11-29T04:18:16.764Z,59.1
2022-11-29T04:32:17.992Z,58
2022-11-29T04:46:19.424Z,57.6
2022-11-29T05:00:22.086Z,56.2
2022-11-29T05:14:23.508Z,55.2
2022-11-29T05:28:24.625Z,53.8
2022-11-29T05:42:26.879Z,52.2
2022-11-29T05:56:28.966Z,51.4
2022-11-29T06:10:32.523Z,49.6
2022-11-29T06:24:36.333Z,48.5
2022-11-29T06:38:37.477Z,47.6
2022-11-29T06:52:37.832Z,46.4
2022-11-29T07:06:39.300Z,44.8
2022-11-29T07:20:41.298Z,44.3
2022-11-29T07:34:43.620Z,42.5
2022-11-29T07:48:45.388Z,41.5
2022-11-29T08:02:48.147Z,41.4
2022-11-29T08:16:50.359Z,40
2022-11-29T08:30:55.573Z,38.8
2022-11-29T08:44:58.854Z,37
2022-11-29T08:58:59.023Z,35.1
2022-11-29T09:13:02.631Z,34.9
2022-11-29T09:27:05.986Z,34
2022-11-29T09:41:07.479Z,33.3
2022-11-29T09:55:11.255Z,31.4
2022-11-29T10:09:12.478Z,30.6
2022-11-29T10:23:15.524Z,31.2
2022-11-29T10:37:18.529Z,31
2022-11-29T10:51:20.567Z,31.5
2022-11-29T11:05:24.218Z,30.9
2022-11-29T11:19:27.678Z,30.6
2022-11-29T11:33:29.918Z,31.2
2022-11-29T11:47:31.463Z,29.3
2022-11-29T12:01:32.898Z,28.1
2022-11-29T12:15:35.926Z,28.2
2022-11-29T12:29:37.680Z,28.3
2022-11-29T12:43:41.396Z,26.3
2022-11-29T12:57:44.161Z,25.8
2022-11-29T13:11:45.448Z,26
2022-11-29T13:25:45.445Z,25.6
2022-11-29T13:39:47.819Z,26.6
2022-11-29T13:53:49.017Z,25.6
2022-11-29T14:07:48.475Z,24.5
2022-11-29T14:21:51.976Z,26.1
2022-11-29T14:35:53.901Z,25.2
2022-11-29T14:49:54.707Z,24.5
2022-11-29T15:03:53.829Z,22.7
2022-11-29T15:17:54.479Z,21.8
2022-11-29T15:31:56.178Z,21.4
2022-11-29T15:45:58.190Z,20.8
2022-11-29T15:59:59.631Z,19.8
2022-11-29T16:13:59.802Z,18.1
2022-11-29T16:28:02.363Z,18.2
2022-11-29T16:42:04.621Z,16.4
2022-11-29T16:56:04.251Z,17.2
2022-11-29T17:10:04.802Z,17.9
2022-11-29T17:24:05.602Z,16.8
2022-11-29T17:38:07.897Z,15.8
2022-11-29T17:52:08.739Z,14.5
2022-11-29T18:06:09.571Z,14.5
2022-11-29T18:20:09.010Z,13.6
2022-11-29T18:34:08.776Z,13.7
2022-11-29T18:48:10.578Z,12.6
2022-11-29T19:02:09.326Z,12.3
2022-11-29T19:16:12.926Z,10.5
2022-11-29T19:30:12.286Z,9.4
2022-11-29T19:44:13.751Z,10.2
2022-11-29T19:58:13.740Z,9.2
2022-11-29T20:12:11.236Z,7.7
2022-11-29T20:26:14.003Z,6.8
2022-11-29T20:40:15.795Z,6.8
2022-11-29T20:54:18.159Z,9.2
2022-11-29T21:08:15.760Z,4.3
2022-11-29T21:22:16.137Z,4.2
2022-11-29T21:36:17.996Z,4.3
2022-11-29T21:50:18.613Z,4.3
2022-11-29T22:04:18.978Z,4.2
2022-11-29T22:18:18.284Z,3.7
2022-11-29T22:32:18.674Z,3.5
2022-11-29T22:46:21.360Z,3.5
2022-11-29T23:00:21.879Z,3.5
2022-11-29T23:14:23.063Z,3.2
2022-11-29T23:28:22.995Z,2
2022-11-29T23:42:25.113Z,1.4
2022-11-29T23:56:26.818Z,2.2
